sensor_id;sensor_type;location;lat;lon;timestamp;P1;durP1;ratioP1;P2;durP2;ratioP2
67442;SDS011;54311;51.726;5.154;2022-12-13T00:00:27;35.72;;;24.83;;
67442;SDS011;54311;51.726;5.154;2022-12-13T00:02:54;31.58;;;23.73;;
67442;SDS011;54311;51.726;5.154;2022-12-13T00:05:19;35.80;;;24.17;;
67442;SDS011;54311;51.726;5.154;2022-12-13T00:07:45;36.03;;;25.73;;
67442;SDS011;54311;51.726;5.154;2022-12-13T00:10:10;34.90;;;24.08;;
67442;SDS011;54311;51.726;5.154;2022-12-13T00:12:35;38.33;;;24.55;;
67442;SDS011;54311;51.726;5.154;2022-12-13T00:15:01;34.97;;;24.88;;
67442;SDS011;54311;51.726;5.154;2022-12-13T00:17:26;38.38;;;24.80;;
67442;SDS011;54311;51.726;5.154;2022-12-13T00:19:51;33.40;;;24.15;;
67442;SDS011;54311;51.726;5.154;2022-12-13T00:22:17;33.20;;;23.85;;
67442;SDS011;54311;51.726;5.154;2022-12-13T00:24:42;34.47;;;24.25;;
67442;SDS011;54311;51.726;5.154;2022-12-13T00:27:07;33.58;;;23.88;;
67442;SDS011;54311;51.726;5.154;2022-12-13T00:29:34;33.97;;;24.67;;
67442;SDS011;54311;51.726;5.154;2022-12-13T00:31:59;37.00;;;25.13;;
67442;SDS011;54311;51.726;5.154;2022-12-13T00:34:25;32.40;;;22.48;;
67442;SDS011;54311;51.726;5.154;2022-12-13T00:36:52;34.67;;;22.40;;
67442;SDS011;54311;51.726;5.154;2022-12-13T00:39:17;41.15;;;23.90;;
67442;SDS011;54311;51.726;5.154;2022-12-13T00:41:43;38.63;;;24.40;;
67442;SDS011;54311;51.726;5.154;2022-12-13T00:44:09;36.90;;;24.52;;
67442;SDS011;54311;51.726;5.154;2022-12-13T00:46:36;42.67;;;24.13;;
67442;SDS011;54311;51.726;5.154;2022-12-13T00:49:01;41.40;;;25.80;;
67442;SDS011;54311;51.726;5.154;2022-12-13T00:51:27;33.83;;;23.73;;
67442;SDS011;54311;51.726;5.154;2022-12-13T00:53:54;36.25;;;25.65;;
67442;SDS011;54311;51.726;5.154;2022-12-13T00:56:20;32.45;;;23.33;;
67442;SDS011;54311;51.726;5.154;2022-12-13T00:58:49;37.80;;;24.38;;
67442;SDS011;54311;51.726;5.154;2022-12-13T01:01:16;39.00;;;24.08;;
67442;SDS011;54311;51.726;5.154;2022-12-13T01:03:42;36.83;;;24.13;;
67442;SDS011;54311;51.726;5.154;2022-12-13T01:06:09;36.53;;;25.20;;
67442;SDS011;54311;51.726;5.154;2022-12-13T01:08:34;35.42;;;23.58;;
67442;SDS011;54311;51.726;5.154;2022-12-13T01:10:59;36.00;;;25.42;;
67442;SDS011;54311;51.726;5.154;2022-12-13T01:13:25;31.98;;;23.17;;
67442;SDS011;54311;51.726;5.154;2022-12-13T01:15:50;42.13;;;24.75;;
67442;SDS011;54311;51.726;5.154;2022-12-13T01:18:15;31.85;;;23.75;;
67442;SDS011;54311;51.726;5.154;2022-12-13T01:20:59;34.30;;;24.42;;
67442;SDS011;54311;51.726;5.154;2022-12-13T01:23:26;36.85;;;23.05;;
67442;SDS011;54311;51.726;5.154;2022-12-13T01:25:52;32.45;;;23.40;;
67442;SDS011;54311;51.726;5.154;2022-12-13T01:28:18;32.30;;;22.73;;
67442;SDS011;54311;51.726;5.154;2022-12-13T01:30:43;33.05;;;23.65;;
67442;SDS011;54311;51.726;5.154;2022-12-13T01:33:08;35.13;;;24.63;;
67442;SDS011;54311;51.726;5.154;2022-12-13T01:35:34;42.03;;;25.42;;
67442;SDS011;54311;51.726;5.154;2022-12-13T01:37:59;34.20;;;23.85;;
67442;SDS011;54311;51.726;5.154;2022-12-13T01:40:25;33.88;;;24.05;;
67442;SDS011;54311;51.726;5.154;2022-12-13T01:42:50;34.50;;;23.20;;
67442;SDS011;54311;51.726;5.154;2022-12-13T01:45:26;29.65;;;22.15;;
67442;SDS011;54311;51.726;5.154;2022-12-13T01:47:56;30.10;;;22.52;;
67442;SDS011;54311;51.726;5.154;2022-12-13T01:50:26;37.25;;;23.95;;
67442;SDS011;54311;51.726;5.154;2022-12-13T01:52:53;34.63;;;24.17;;
67442;SDS011;54311;51.726;5.154;2022-12-13T01:55:19;30.58;;;23.58;;
67442;SDS011;54311;51.726;5.154;2022-12-13T01:57:46;29.65;;;22.85;;
67442;SDS011;54311;51.726;5.154;2022-12-13T02:00:13;34.17;;;23.75;;
67442;SDS011;54311;51.726;5.154;2022-12-13T02:02:39;35.58;;;24.58;;
67442;SDS011;54311;51.726;5.154;2022-12-13T02:05:09;37.40;;;24.40;;
67442;SDS011;54311;51.726;5.154;2022-12-13T02:07:56;44.00;;;26.10;;
67442;SDS011;54311;51.726;5.154;2022-12-13T02:10:22;39.15;;;24.80;;
67442;SDS011;54311;51.726;5.154;2022-12-13T02:12:48;38.47;;;25.05;;
67442;SDS011;54311;51.726;5.154;2022-12-13T02:15:14;38.08;;;24.95;;
67442;SDS011;54311;51.726;5.154;2022-12-13T02:20:42;33.10;;;25.42;;
67442;SDS011;54311;51.726;5.154;2022-12-13T02:26:01;37.70;;;26.60;;
67442;SDS011;54311;51.726;5.154;2022-12-13T02:36:39;34.75;;;24.90;;
67442;SDS011;54311;51.726;5.154;2022-12-13T02:39:10;35.90;;;25.15;;
67442;SDS011;54311;51.726;5.154;2022-12-13T02:41:47;33.20;;;24.40;;
67442;SDS011;54311;51.726;5.154;2022-12-13T02:44:21;39.53;;;26.17;;
67442;SDS011;54311;51.726;5.154;2022-12-13T02:47:04;36.45;;;24.60;;
67442;SDS011;54311;51.726;5.154;2022-12-13T02:49:33;38.53;;;25.30;;
67442;SDS011;54311;51.726;5.154;2022-12-13T02:52:01;34.13;;;25.67;;
67442;SDS011;54311;51.726;5.154;2022-12-13T02:54:27;35.55;;;24.58;;
67442;SDS011;54311;51.726;5.154;2022-12-13T02:56:55;40.28;;;26.40;;
67442;SDS011;54311;51.726;5.154;2022-12-13T02:59:22;37.15;;;25.00;;
67442;SDS011;54311;51.726;5.154;2022-12-13T03:02:00;36.47;;;25.40;;
67442;SDS011;54311;51.726;5.154;2022-12-13T03:04:43;42.40;;;25.55;;
67442;SDS011;54311;51.726;5.154;2022-12-13T03:07:38;37.67;;;24.67;;
67442;SDS011;54311;51.726;5.154;2022-12-13T03:10:14;35.42;;;24.70;;
67442;SDS011;54311;51.726;5.154;2022-12-13T03:12:53;38.30;;;24.88;;
67442;SDS011;54311;51.726;5.154;2022-12-13T03:15:42;41.45;;;25.52;;
67442;SDS011;54311;51.726;5.154;2022-12-13T03:18:13;36.92;;;25.52;;
67442;SDS011;54311;51.726;5.154;2022-12-13T03:20:47;44.88;;;26.02;;
67442;SDS011;54311;51.726;5.154;2022-12-13T03:23:18;38.13;;;23.98;;
67442;SDS011;54311;51.726;5.154;2022-12-13T03:25:44;39.42;;;25.27;;
67442;SDS011;54311;51.726;5.154;2022-12-13T03:28:10;36.92;;;24.63;;
67442;SDS011;54311;51.726;5.154;2022-12-13T03:30:36;37.13;;;25.35;;
67442;SDS011;54311;51.726;5.154;2022-12-13T03:33:02;37.63;;;26.42;;
67442;SDS011;54311;51.726;5.154;2022-12-13T03:35:27;38.88;;;26.10;;
67442;SDS011;54311;51.726;5.154;2022-12-13T03:37:53;37.95;;;26.17;;
67442;SDS011;54311;51.726;5.154;2022-12-13T03:40:18;44.60;;;25.13;;
67442;SDS011;54311;51.726;5.154;2022-12-13T03:42:44;40.70;;;27.08;;
67442;SDS011;54311;51.726;5.154;2022-12-13T03:45:10;39.00;;;26.15;;
67442;SDS011;54311;51.726;5.154;2022-12-13T03:47:35;40.13;;;26.42;;
67442;SDS011;54311;51.726;5.154;2022-12-13T03:50:01;41.38;;;26.30;;
67442;SDS011;54311;51.726;5.154;2022-12-13T03:52:26;44.78;;;26.65;;
67442;SDS011;54311;51.726;5.154;2022-12-13T03:54:51;42.42;;;28.02;;
67442;SDS011;54311;51.726;5.154;2022-12-13T03:57:17;42.35;;;26.17;;
67442;SDS011;54311;51.726;5.154;2022-12-13T03:59:42;37.35;;;25.88;;
67442;SDS011;54311;51.726;5.154;2022-12-13T04:02:08;42.70;;;26.33;;
67442;SDS011;54311;51.726;5.154;2022-12-13T04:04:33;41.08;;;27.33;;
67442;SDS011;54311;51.726;5.154;2022-12-13T04:06:58;37.63;;;26.42;;
67442;SDS011;54311;51.726;5.154;2022-12-13T04:09:23;39.97;;;25.60;;
67442;SDS011;54311;51.726;5.154;2022-12-13T04:11:49;37.80;;;26.73;;
67442;SDS011;54311;51.726;5.154;2022-12-13T04:14:33;36.85;;;24.95;;
67442;SDS011;54311;51.726;5.154;2022-12-13T04:16:58;42.47;;;25.83;;
67442;SDS011;54311;51.726;5.154;2022-12-13T04:19:23;48.60;;;26.00;;
67442;SDS011;54311;51.726;5.154;2022-12-13T04:21:49;44.50;;;27.40;;
67442;SDS011;54311;51.726;5.154;2022-12-13T04:24:14;45.85;;;26.70;;
67442;SDS011;54311;51.726;5.154;2022-12-13T04:26:40;41.63;;;26.88;;
67442;SDS011;54311;51.726;5.154;2022-12-13T04:29:05;36.08;;;26.45;;
67442;SDS011;54311;51.726;5.154;2022-12-13T04:31:31;39.35;;;26.13;;
67442;SDS011;54311;51.726;5.154;2022-12-13T04:33:56;40.67;;;25.95;;
67442;SDS011;54311;51.726;5.154;2022-12-13T04:36:21;32.55;;;23.35;;
67442;SDS011;54311;51.726;5.154;2022-12-13T04:38:47;42.95;;;24.92;;
67442;SDS011;54311;51.726;5.154;2022-12-13T04:41:14;41.35;;;25.80;;
67442;SDS011;54311;51.726;5.154;2022-12-13T04:43:40;41.25;;;26.25;;
67442;SDS011;54311;51.726;5.154;2022-12-13T04:46:06;36.97;;;24.83;;
67442;SDS011;54311;51.726;5.154;2022-12-13T04:48:31;34.10;;;24.27;;
67442;SDS011;54311;51.726;5.154;2022-12-13T04:50:58;38.35;;;24.63;;
67442;SDS011;54311;51.726;5.154;2022-12-13T04:53:24;34.75;;;24.70;;
67442;SDS011;54311;51.726;5.154;2022-12-13T04:55:49;35.33;;;24.75;;
67442;SDS011;54311;51.726;5.154;2022-12-13T04:58:15;35.42;;;25.25;;
67442;SDS011;54311;51.726;5.154;2022-12-13T05:00:40;38.33;;;26.33;;
67442;SDS011;54311;51.726;5.154;2022-12-13T05:03:06;36.92;;;24.23;;
67442;SDS011;54311;51.726;5.154;2022-12-13T05:05:31;36.28;;;24.33;;
67442;SDS011;54311;51.726;5.154;2022-12-13T05:07:56;40.42;;;28.10;;
67442;SDS011;54311;51.726;5.154;2022-12-13T05:10:22;39.10;;;25.92;;
67442;SDS011;54311;51.726;5.154;2022-12-13T05:12:47;42.70;;;27.67;;
67442;SDS011;54311;51.726;5.154;2022-12-13T05:15:12;41.85;;;27.10;;
67442;SDS011;54311;51.726;5.154;2022-12-13T05:17:38;40.08;;;27.65;;
67442;SDS011;54311;51.726;5.154;2022-12-13T05:20:03;42.30;;;27.35;;
67442;SDS011;54311;51.726;5.154;2022-12-13T05:22:29;38.72;;;25.63;;
67442;SDS011;54311;51.726;5.154;2022-12-13T05:24:54;41.58;;;25.58;;
67442;SDS011;54311;51.726;5.154;2022-12-13T05:27:19;39.83;;;25.60;;
67442;SDS011;54311;51.726;5.154;2022-12-13T05:29:45;43.35;;;27.02;;
67442;SDS011;54311;51.726;5.154;2022-12-13T05:32:10;39.15;;;25.38;;
67442;SDS011;54311;51.726;5.154;2022-12-13T05:34:36;34.88;;;26.33;;
67442;SDS011;54311;51.726;5.154;2022-12-13T05:37:01;37.58;;;26.05;;
67442;SDS011;54311;51.726;5.154;2022-12-13T05:39:26;36.55;;;25.30;;
67442;SDS011;54311;51.726;5.154;2022-12-13T05:41:52;42.35;;;27.70;;
67442;SDS011;54311;51.726;5.154;2022-12-13T05:44:18;42.70;;;26.33;;
67442;SDS011;54311;51.726;5.154;2022-12-13T05:46:43;34.08;;;25.45;;
67442;SDS011;54311;51.726;5.154;2022-12-13T05:49:08;35.58;;;25.73;;
67442;SDS011;54311;51.726;5.154;2022-12-13T05:51:34;36.20;;;25.55;;
67442;SDS011;54311;51.726;5.154;2022-12-13T05:53:59;41.10;;;27.30;;
67442;SDS011;54311;51.726;5.154;2022-12-13T05:56:24;37.70;;;25.50;;
67442;SDS011;54311;51.726;5.154;2022-12-13T05:58:50;39.15;;;26.65;;
67442;SDS011;54311;51.726;5.154;2022-12-13T06:01:15;35.15;;;24.90;;
67442;SDS011;54311;51.726;5.154;2022-12-13T06:03:41;33.20;;;25.00;;
67442;SDS011;54311;51.726;5.154;2022-12-13T06:06:07;36.95;;;25.80;;
67442;SDS011;54311;51.726;5.154;2022-12-13T06:08:33;37.65;;;26.05;;
67442;SDS011;54311;51.726;5.154;2022-12-13T06:10:59;37.72;;;26.55;;
67442;SDS011;54311;51.726;5.154;2022-12-13T06:13:25;35.85;;;25.50;;
67442;SDS011;54311;51.726;5.154;2022-12-13T06:15:51;39.45;;;27.65;;
67442;SDS011;54311;51.726;5.154;2022-12-13T06:18:17;42.38;;;27.55;;
67442;SDS011;54311;51.726;5.154;2022-12-13T06:20:43;41.85;;;27.92;;
67442;SDS011;54311;51.726;5.154;2022-12-13T06:23:08;40.88;;;27.15;;
67442;SDS011;54311;51.726;5.154;2022-12-13T06:25:35;38.50;;;27.00;;
67442;SDS011;54311;51.726;5.154;2022-12-13T06:28:00;37.35;;;25.75;;
67442;SDS011;54311;51.726;5.154;2022-12-13T06:30:26;34.63;;;24.85;;
67442;SDS011;54311;51.726;5.154;2022-12-13T06:32:51;42.65;;;26.42;;
67442;SDS011;54311;51.726;5.154;2022-12-13T06:35:17;48.53;;;26.95;;
67442;SDS011;54311;51.726;5.154;2022-12-13T06:37:42;41.70;;;25.25;;
67442;SDS011;54311;51.726;5.154;2022-12-13T06:40:07;36.80;;;26.13;;
67442;SDS011;54311;51.726;5.154;2022-12-13T06:42:33;37.28;;;26.75;;
67442;SDS011;54311;51.726;5.154;2022-12-13T06:44:59;42.92;;;27.27;;
67442;SDS011;54311;51.726;5.154;2022-12-13T06:47:24;38.60;;;26.58;;
67442;SDS011;54311;51.726;5.154;2022-12-13T06:49:51;40.47;;;26.77;;
67442;SDS011;54311;51.726;5.154;2022-12-13T06:52:17;39.55;;;25.05;;
67442;SDS011;54311;51.726;5.154;2022-12-13T06:54:42;41.53;;;26.50;;
67442;SDS011;54311;51.726;5.154;2022-12-13T06:57:08;36.35;;;24.77;;
67442;SDS011;54311;51.726;5.154;2022-12-13T06:59:34;38.88;;;27.08;;
67442;SDS011;54311;51.726;5.154;2022-12-13T07:01:59;35.67;;;25.40;;
67442;SDS011;54311;51.726;5.154;2022-12-13T07:04:25;36.50;;;25.90;;
67442;SDS011;54311;51.726;5.154;2022-12-13T07:06:50;38.05;;;25.98;;
67442;SDS011;54311;51.726;5.154;2022-12-13T07:09:15;30.77;;;25.35;;
67442;SDS011;54311;51.726;5.154;2022-12-13T07:11:41;36.50;;;25.08;;
67442;SDS011;54311;51.726;5.154;2022-12-13T07:14:06;38.45;;;25.73;;
67442;SDS011;54311;51.726;5.154;2022-12-13T07:16:32;43.72;;;28.60;;
67442;SDS011;54311;51.726;5.154;2022-12-13T07:18:58;42.55;;;26.88;;
67442;SDS011;54311;51.726;5.154;2022-12-13T07:21:25;41.35;;;27.02;;
67442;SDS011;54311;51.726;5.154;2022-12-13T07:23:50;43.92;;;25.50;;
67442;SDS011;54311;51.726;5.154;2022-12-13T07:26:16;40.35;;;28.92;;
67442;SDS011;54311;51.726;5.154;2022-12-13T07:28:42;37.47;;;26.35;;
67442;SDS011;54311;51.726;5.154;2022-12-13T07:31:08;45.03;;;27.35;;
67442;SDS011;54311;51.726;5.154;2022-12-13T07:33:34;46.58;;;27.13;;
67442;SDS011;54311;51.726;5.154;2022-12-13T07:36:07;39.30;;;27.40;;
67442;SDS011;54311;51.726;5.154;2022-12-13T07:38:36;41.17;;;27.27;;
67442;SDS011;54311;51.726;5.154;2022-12-13T07:41:02;42.97;;;27.05;;
67442;SDS011;54311;51.726;5.154;2022-12-13T07:43:29;42.42;;;27.73;;
67442;SDS011;54311;51.726;5.154;2022-12-13T07:45:58;45.97;;;26.35;;
67442;SDS011;54311;51.726;5.154;2022-12-13T07:48:28;45.93;;;28.40;;
67442;SDS011;54311;51.726;5.154;2022-12-13T07:50:54;44.47;;;27.67;;
67442;SDS011;54311;51.726;5.154;2022-12-13T07:53:25;47.65;;;30.15;;
67442;SDS011;54311;51.726;5.154;2022-12-13T07:55:51;50.33;;;27.77;;
67442;SDS011;54311;51.726;5.154;2022-12-13T07:58:17;44.63;;;29.83;;
67442;SDS011;54311;51.726;5.154;2022-12-13T08:00:43;46.30;;;29.25;;
67442;SDS011;54311;51.726;5.154;2022-12-13T08:03:09;42.35;;;28.58;;
67442;SDS011;54311;51.726;5.154;2022-12-13T08:05:35;43.45;;;30.50;;
67442;SDS011;54311;51.726;5.154;2022-12-13T08:08:02;48.63;;;30.42;;
67442;SDS011;54311;51.726;5.154;2022-12-13T08:10:28;52.70;;;31.70;;
67442;SDS011;54311;51.726;5.154;2022-12-13T08:12:54;52.58;;;30.77;;
67442;SDS011;54311;51.726;5.154;2022-12-13T08:15:19;46.70;;;28.23;;
67442;SDS011;54311;51.726;5.154;2022-12-13T08:17:45;44.95;;;29.52;;
67442;SDS011;54311;51.726;5.154;2022-12-13T08:20:11;48.38;;;29.92;;
67442;SDS011;54311;51.726;5.154;2022-12-13T08:22:38;41.08;;;28.27;;
67442;SDS011;54311;51.726;5.154;2022-12-13T08:25:04;53.65;;;30.45;;
67442;SDS011;54311;51.726;5.154;2022-12-13T08:27:30;43.97;;;29.02;;
67442;SDS011;54311;51.726;5.154;2022-12-13T08:29:55;44.95;;;28.73;;
67442;SDS011;54311;51.726;5.154;2022-12-13T08:32:21;48.13;;;29.88;;
67442;SDS011;54311;51.726;5.154;2022-12-13T08:34:46;39.63;;;28.10;;
67442;SDS011;54311;51.726;5.154;2022-12-13T08:37:12;51.17;;;29.85;;
67442;SDS011;54311;51.726;5.154;2022-12-13T08:39:37;45.85;;;29.17;;
67442;SDS011;54311;51.726;5.154;2022-12-13T08:42:04;46.05;;;28.98;;
67442;SDS011;54311;51.726;5.154;2022-12-13T08:44:31;42.63;;;29.45;;
67442;SDS011;54311;51.726;5.154;2022-12-13T08:46:56;48.45;;;31.08;;
67442;SDS011;54311;51.726;5.154;2022-12-13T08:49:22;48.33;;;31.25;;
67442;SDS011;54311;51.726;5.154;2022-12-13T08:51:47;50.42;;;32.70;;
67442;SDS011;54311;51.726;5.154;2022-12-13T08:54:12;44.58;;;30.83;;
67442;SDS011;54311;51.726;5.154;2022-12-13T08:56:38;50.35;;;31.02;;
67442;SDS011;54311;51.726;5.154;2022-12-13T08:59:03;64.55;;;36.70;;
67442;SDS011;54311;51.726;5.154;2022-12-13T09:01:29;54.38;;;35.22;;
67442;SDS011;54311;51.726;5.154;2022-12-13T09:03:55;57.75;;;35.70;;
67442;SDS011;54311;51.726;5.154;2022-12-13T09:06:20;55.35;;;34.22;;
67442;SDS011;54311;51.726;5.154;2022-12-13T09:08:45;51.15;;;34.78;;
67442;SDS011;54311;51.726;5.154;2022-12-13T09:11:11;51.83;;;34.13;;
67442;SDS011;54311;51.726;5.154;2022-12-13T09:13:37;51.88;;;35.95;;
67442;SDS011;54311;51.726;5.154;2022-12-13T09:16:06;52.97;;;36.63;;
67442;SDS011;54311;51.726;5.154;2022-12-13T09:18:34;65.50;;;38.78;;
67442;SDS011;54311;51.726;5.154;2022-12-13T09:20:59;56.55;;;35.55;;
67442;SDS011;54311;51.726;5.154;2022-12-13T09:23:25;60.88;;;36.42;;
67442;SDS011;54311;51.726;5.154;2022-12-13T09:25:54;57.20;;;37.50;;
67442;SDS011;54311;51.726;5.154;2022-12-13T09:28:20;57.38;;;38.47;;
67442;SDS011;54311;51.726;5.154;2022-12-13T09:30:47;61.58;;;40.08;;
67442;SDS011;54311;51.726;5.154;2022-12-13T09:33:12;57.88;;;39.50;;
67442;SDS011;54311;51.726;5.154;2022-12-13T09:35:37;62.10;;;38.17;;
67442;SDS011;54311;51.726;5.154;2022-12-13T09:38:03;57.90;;;37.97;;
67442;SDS011;54311;51.726;5.154;2022-12-13T09:40:29;68.63;;;37.75;;
67442;SDS011;54311;51.726;5.154;2022-12-13T09:42:55;58.20;;;39.00;;
67442;SDS011;54311;51.726;5.154;2022-12-13T09:45:24;57.20;;;37.90;;
67442;SDS011;54311;51.726;5.154;2022-12-13T09:47:50;61.58;;;38.70;;
67442;SDS011;54311;51.726;5.154;2022-12-13T09:50:21;62.90;;;39.97;;
67442;SDS011;54311;51.726;5.154;2022-12-13T09:52:50;58.25;;;38.10;;
67442;SDS011;54311;51.726;5.154;2022-12-13T09:57:48;55.88;;;37.70;;
67442;SDS011;54311;51.726;5.154;2022-12-13T10:00:15;61.80;;;37.00;;
67442;SDS011;54311;51.726;5.154;2022-12-13T10:02:53;55.35;;;36.20;;
67442;SDS011;54311;51.726;5.154;2022-12-13T10:05:28;64.93;;;39.63;;
67442;SDS011;54311;51.726;5.154;2022-12-13T10:07:58;58.83;;;40.13;;
67442;SDS011;54311;51.726;5.154;2022-12-13T10:10:25;73.13;;;46.47;;
67442;SDS011;54311;51.726;5.154;2022-12-13T10:12:55;94.50;;;60.13;;
67442;SDS011;54311;51.726;5.154;2022-12-13T10:17:50;130.38;;;83.72;;
67442;SDS011;54311;51.726;5.154;2022-12-13T10:20:19;71.88;;;49.03;;
67442;SDS011;54311;51.726;5.154;2022-12-13T10:22:45;67.78;;;44.17;;
67442;SDS011;54311;51.726;5.154;2022-12-13T10:25:11;71.10;;;46.00;;
67442;SDS011;54311;51.726;5.154;2022-12-13T10:27:38;89.65;;;63.38;;
67442;SDS011;54311;51.726;5.154;2022-12-13T10:37:56;243.68;;;147.93;;
67442;SDS011;54311;51.726;5.154;2022-12-13T10:40:37;150.20;;;99.40;;
67442;SDS011;54311;51.726;5.154;2022-12-13T10:43:17;127.15;;;89.85;;
67442;SDS011;54311;51.726;5.154;2022-12-13T10:45:59;124.97;;;88.35;;
67442;SDS011;54311;51.726;5.154;2022-12-13T10:51:01;77.20;;;54.80;;
67442;SDS011;54311;51.726;5.154;2022-12-13T10:53:29;83.13;;;61.95;;
67442;SDS011;54311;51.726;5.154;2022-12-13T10:55:57;74.95;;;52.72;;
67442;SDS011;54311;51.726;5.154;2022-12-13T10:58:23;74.32;;;55.08;;
67442;SDS011;54311;51.726;5.154;2022-12-13T11:01:27;93.47;;;72.45;;
67442;SDS011;54311;51.726;5.154;2022-12-13T11:04:00;213.80;;;152.75;;
67442;SDS011;54311;51.726;5.154;2022-12-13T11:08:53;79.43;;;56.38;;
67442;SDS011;54311;51.726;5.154;2022-12-13T11:11:25;104.93;;;70.53;;
67442;SDS011;54311;51.726;5.154;2022-12-13T11:13:53;68.63;;;50.22;;
67442;SDS011;54311;51.726;5.154;2022-12-13T11:16:39;92.88;;;71.78;;
67442;SDS011;54311;51.726;5.154;2022-12-13T11:19:21;104.78;;;72.95;;
67442;SDS011;54311;51.726;5.154;2022-12-13T11:21:51;87.78;;;62.13;;
67442;SDS011;54311;51.726;5.154;2022-12-13T11:24:23;67.75;;;46.20;;
67442;SDS011;54311;51.726;5.154;2022-12-13T11:26:57;58.13;;;41.85;;
67442;SDS011;54311;51.726;5.154;2022-12-13T11:29:50;57.58;;;39.25;;
67442;SDS011;54311;51.726;5.154;2022-12-13T11:35:10;125.32;;;87.05;;
67442;SDS011;54311;51.726;5.154;2022-12-13T11:40:42;88.20;;;65.32;;
67442;SDS011;54311;51.726;5.154;2022-12-13T11:43:14;65.13;;;45.50;;
67442;SDS011;54311;51.726;5.154;2022-12-13T11:45:46;65.93;;;46.28;;
67442;SDS011;54311;51.726;5.154;2022-12-13T11:48:18;59.63;;;42.55;;
67442;SDS011;54311;51.726;5.154;2022-12-13T11:50:47;52.25;;;36.00;;
67442;SDS011;54311;51.726;5.154;2022-12-13T11:53:21;67.65;;;49.22;;
67442;SDS011;54311;51.726;5.154;2022-12-13T11:56:12;65.10;;;44.72;;
67442;SDS011;54311;51.726;5.154;2022-12-13T12:01:23;54.97;;;36.63;;
67442;SDS011;54311;51.726;5.154;2022-12-13T12:03:58;54.13;;;36.35;;
67442;SDS011;54311;51.726;5.154;2022-12-13T12:06:28;51.92;;;38.17;;
67442;SDS011;54311;51.726;5.154;2022-12-13T12:09:01;52.42;;;37.10;;
67442;SDS011;54311;51.726;5.154;2022-12-13T12:11:30;50.17;;;35.65;;
67442;SDS011;54311;51.726;5.154;2022-12-13T12:14:20;68.22;;;47.88;;
67442;SDS011;54311;51.726;5.154;2022-12-13T12:16:57;53.35;;;38.85;;
67442;SDS011;54311;51.726;5.154;2022-12-13T12:19:28;59.00;;;42.78;;
67442;SDS011;54311;51.726;5.154;2022-12-13T12:22:03;50.55;;;35.83;;
67442;SDS011;54311;51.726;5.154;2022-12-13T12:24:55;51.95;;;38.25;;
67442;SDS011;54311;51.726;5.154;2022-12-13T12:27:36;48.55;;;32.67;;
67442;SDS011;54311;51.726;5.154;2022-12-13T12:36:03;55.40;;;41.88;;
67442;SDS011;54311;51.726;5.154;2022-12-13T12:52:52;51.42;;;33.65;;
67442;SDS011;54311;51.726;5.154;2022-12-13T12:55:36;52.05;;;33.92;;
67442;SDS011;54311;51.726;5.154;2022-12-13T12:58:32;46.90;;;31.88;;
67442;SDS011;54311;51.726;5.154;2022-12-13T13:01:06;48.65;;;33.75;;
67442;SDS011;54311;51.726;5.154;2022-12-13T13:03:50;52.78;;;32.47;;
67442;SDS011;54311;51.726;5.154;2022-12-13T13:06:19;52.45;;;33.38;;
67442;SDS011;54311;51.726;5.154;2022-12-13T13:08:54;48.13;;;32.40;;
67442;SDS011;54311;51.726;5.154;2022-12-13T13:11:38;46.47;;;32.45;;
67442;SDS011;54311;51.726;5.154;2022-12-13T13:16:58;56.95;;;35.92;;
67442;SDS011;54311;51.726;5.154;2022-12-13T13:21:57;58.47;;;35.28;;
67442;SDS011;54311;51.726;5.154;2022-12-13T13:24:29;77.57;;;43.88;;
67442;SDS011;54311;51.726;5.154;2022-12-13T13:26:56;64.80;;;39.08;;
67442;SDS011;54311;51.726;5.154;2022-12-13T13:34:22;50.65;;;33.70;;
67442;SDS011;54311;51.726;5.154;2022-12-13T13:36:51;51.33;;;34.47;;
67442;SDS011;54311;51.726;5.154;2022-12-13T13:47:12;53.97;;;37.42;;
67442;SDS011;54311;51.726;5.154;2022-12-13T13:49:49;52.85;;;36.42;;
67442;SDS011;54311;51.726;5.154;2022-12-13T14:00:48;45.42;;;31.88;;
67442;SDS011;54311;51.726;5.154;2022-12-13T14:17:43;46.47;;;33.30;;
67442;SDS011;54311;51.726;5.154;2022-12-13T14:23:32;48.25;;;32.53;;
67442;SDS011;54311;51.726;5.154;2022-12-13T14:28:55;44.30;;;29.88;;
67442;SDS011;54311;51.726;5.154;2022-12-13T14:31:26;47.28;;;33.15;;
67442;SDS011;54311;51.726;5.154;2022-12-13T14:34:13;41.50;;;30.73;;
67442;SDS011;54311;51.726;5.154;2022-12-13T14:36:43;52.33;;;36.55;;
67442;SDS011;54311;51.726;5.154;2022-12-13T14:39:31;49.15;;;35.25;;
67442;SDS011;54311;51.726;5.154;2022-12-13T14:41:59;43.17;;;33.13;;
67442;SDS011;54311;51.726;5.154;2022-12-13T14:44:26;48.28;;;34.10;;
67442;SDS011;54311;51.726;5.154;2022-12-13T14:46:57;46.60;;;31.60;;
67442;SDS011;54311;51.726;5.154;2022-12-13T14:49:24;50.10;;;34.25;;
67442;SDS011;54311;51.726;5.154;2022-12-13T14:51:52;44.05;;;33.08;;
67442;SDS011;54311;51.726;5.154;2022-12-13T14:54:25;45.13;;;32.35;;
67442;SDS011;54311;51.726;5.154;2022-12-13T14:56:55;49.05;;;34.08;;
67442;SDS011;54311;51.726;5.154;2022-12-13T14:59:22;46.15;;;33.33;;
67442;SDS011;54311;51.726;5.154;2022-12-13T15:01:55;53.85;;;33.45;;
67442;SDS011;54311;51.726;5.154;2022-12-13T15:04:27;51.75;;;34.70;;
67442;SDS011;54311;51.726;5.154;2022-12-13T15:09:22;48.20;;;34.33;;
67442;SDS011;54311;51.726;5.154;2022-12-13T15:11:48;48.35;;;34.90;;
67442;SDS011;54311;51.726;5.154;2022-12-13T15:14:16;59.03;;;34.03;;
67442;SDS011;54311;51.726;5.154;2022-12-13T15:16:47;52.33;;;33.72;;
67442;SDS011;54311;51.726;5.154;2022-12-13T15:19:18;49.67;;;34.70;;
67442;SDS011;54311;51.726;5.154;2022-12-13T15:22:00;49.08;;;35.00;;
67442;SDS011;54311;51.726;5.154;2022-12-13T15:24:31;46.80;;;31.83;;
67442;SDS011;54311;51.726;5.154;2022-12-13T15:26:58;51.17;;;32.50;;
67442;SDS011;54311;51.726;5.154;2022-12-13T15:29:25;55.75;;;33.45;;
67442;SDS011;54311;51.726;5.154;2022-12-13T15:31:52;48.85;;;33.08;;
67442;SDS011;54311;51.726;5.154;2022-12-13T15:37:02;53.13;;;34.40;;
67442;SDS011;54311;51.726;5.154;2022-12-13T15:39:33;49.10;;;34.00;;
67442;SDS011;54311;51.726;5.154;2022-12-13T15:42:00;53.28;;;35.25;;
67442;SDS011;54311;51.726;5.154;2022-12-13T15:44:27;52.20;;;32.97;;
67442;SDS011;54311;51.726;5.154;2022-12-13T15:47:03;49.38;;;34.03;;
67442;SDS011;54311;51.726;5.154;2022-12-13T15:49:39;47.35;;;32.80;;
67442;SDS011;54311;51.726;5.154;2022-12-13T15:54:38;48.45;;;33.80;;
67442;SDS011;54311;51.726;5.154;2022-12-13T15:57:11;51.60;;;33.03;;
67442;SDS011;54311;51.726;5.154;2022-12-13T15:59:38;55.40;;;36.10;;
67442;SDS011;54311;51.726;5.154;2022-12-13T16:02:08;59.78;;;37.40;;
67442;SDS011;54311;51.726;5.154;2022-12-13T16:04:39;63.05;;;38.38;;
67442;SDS011;54311;51.726;5.154;2022-12-13T16:07:04;60.15;;;38.00;;
67442;SDS011;54311;51.726;5.154;2022-12-13T16:09:31;55.65;;;38.03;;
67442;SDS011;54311;51.726;5.154;2022-12-13T16:11:59;55.00;;;35.25;;
67442;SDS011;54311;51.726;5.154;2022-12-13T16:16:55;66.85;;;46.38;;
67442;SDS011;54311;51.726;5.154;2022-12-13T16:19:25;64.85;;;39.90;;
67442;SDS011;54311;51.726;5.154;2022-12-13T16:21:51;60.70;;;40.25;;
67442;SDS011;54311;51.726;5.154;2022-12-13T16:24:16;55.97;;;33.70;;
67442;SDS011;54311;51.726;5.154;2022-12-13T16:26:42;51.92;;;35.78;;